Cherokee — 9HBC7 — position and weather

sailwx.info

Track history (hours):
 
Tides and Currents Weather Stations Pressure Air Temp Water Temp Dewpoint Dewpoint Depression Visibility Wind Speed Wind Dir Waves Ship Positions

Cherokee

Last reported at 2014-Sep-14 18:23 UTC. Time now 2014-Sep-16 11:31 UTC.
Position N 40°56' E 028°55'.

Length 139 m; draft 3.9 m.

Type: Cargo ship. MMSI: 215059000.

Date/timePositionNaut miles runAvg speedWind from/ knotsBaromVisibWave heightAir tempDewpointWater temp
2014-Sep-14 18:23N 40°56' E 028°55'3 3.2
2014-Sep-14 17:29N 40°59' E 028°56'0 0.0
2014-Sep-14 16:33N 40°59' E 028°56'1 1.4
2014-Sep-14 15:33N 40°58' E 028°58'301 6.5
2014-Sep-12 17:28N 44°17' E 034°05'8 8.4
2014-Sep-12 16:31N 44°21' E 034°14'9 9.3
2014-Sep-12 15:33N 44°26' E 034°25'9 8.9
2014-Sep-12 14:33N 44°30' E 034°36'9 8.5
2014-Sep-12 13:33N 44°35' E 034°46'8 8.1
2014-Sep-12 12:33N 44°39' E 034°56'  
Track history (hours):
 
Tides and Currents Weather Stations Pressure Air Temp Water Temp Dewpoint Dewpoint Depression Visibility Wind Speed Wind Dir Waves Ship Positions

Cherokee

Last reported at 2014-Sep-14 18:23 UTC. Time now 2014-Sep-16 11:31 UTC.
Position N 40°56' E 028°55'.

Length 139 m; draft 3.9 m.

Type: Cargo ship. MMSI: 215059000.

Date/timePositionNaut miles runAvg speedWind from/ knotsBaromVisibWave heightAir tempDewpointWater temp
2014-Sep-14 18:23N 40°56' E 028°55'3 3.2
2014-Sep-14 17:29N 40°59' E 028°56'0 0.0
2014-Sep-14 16:33N 40°59' E 028°56'1 1.4
2014-Sep-14 15:33N 40°58' E 028°58'301 6.5
2014-Sep-12 17:28N 44°17' E 034°05'8 8.4
2014-Sep-12 16:31N 44°21' E 034°14'9 9.3
2014-Sep-12 15:33N 44°26' E 034°25'9 8.9
2014-Sep-12 14:33N 44°30' E 034°36'9 8.5
2014-Sep-12 13:33N 44°35' E 034°46'8 8.1
2014-Sep-12 12:33N 44°39' E 034°56'  

Dump ship's entire track history